Time;durP1;ratioP1;P1;durP2;ratioP2;P2;SDS_P1;SDS_P2;PMS_P1;PMS_P2;Temp;Humidity;BMP_temperature;BMP_pressure;BME280_temperature;BME280_humidity;BME280_pressure;Samples;Min_cycle;Max_cycle;Signal;HPM_P1;HPM_P2
2022/04/08 00:02:20;;;;;;;6.17;3.57;;;;;;;10.06;100.00;61873.66;5091686;28;20442;-72
2022/04/08 00:04:47;;;;;;;5.27;3.97;;;;;;;9.91;100.00;61860.13;5091556;28;20438;-72
2022/04/08 00:07:14;;;;;;;5.27;4.07;;;;;;;9.98;100.00;61865.09;5092484;28;20196;-72
2022/04/08 00:09:40;;;;;;;8.07;3.77;;;;;;;9.83;100.00;61849.56;5091823;28;20499;-72
2022/04/08 00:12:09;;;;;;;6.27;4.10;;;;;;;9.94;100.00;61863.34;5091896;28;20702;-71
2022/04/08 00:14:36;;;;;;;4.10;3.57;;;;;;;10.03;100.00;61873.53;5091771;28;20202;-72
2022/04/08 00:17:04;;;;;;;9.10;4.00;;;;;;;10.06;100.00;61876.22;5091737;28;20662;-72
2022/04/08 00:19:33;;;;;;;5.97;3.60;;;;;;;10.12;100.00;61880.09;5090972;28;20696;-73
2022/04/08 00:22:00;;;;;;;6.80;4.10;;;;;;;10.17;100.00;61885.44;5091479;28;20248;-70
2022/04/08 00:24:27;;;;;;;8.70;5.23;;;;;;;9.93;100.00;61864.81;5091937;28;20525;-72
2022/04/08 00:26:54;;;;;;;11.20;4.33;;;;;;;10.03;100.00;61870.44;5095554;28;20196;-72
2022/04/08 00:29:21;;;;;;;6.80;3.97;;;;;;;10.02;100.00;61871.94;5095293;28;20199;-72
2022/04/08 00:31:50;;;;;;;5.50;4.33;;;;;;;9.94;100.00;61863.34;5094767;28;20300;-71
2022/04/08 00:34:17;;;;;;;8.20;4.10;;;;;;;9.93;100.00;61857.19;5096325;28;20445;-72
2022/04/08 00:36:45;;;;;;;11.77;4.33;;;;;;;9.96;100.00;61866.03;5095556;28;20441;-70
2022/04/08 00:39:13;;;;;;;5.17;3.80;;;;;;;9.38;100.00;61803.44;5094986;28;20284;-71
2022/04/08 00:41:40;;;;;;;5.77;3.63;;;;;;;9.87;100.00;61853.31;5095325;28;20487;-70
2022/04/08 00:44:09;;;;;;;5.80;3.50;;;;;;;9.85;100.00;61851.16;5094843;28;20245;-72
2022/04/08 00:46:37;;;;;;;5.50;3.87;;;;;;;9.75;100.00;61843.00;5095137;28;20278;-72
2022/04/08 00:49:05;;;;;;;6.67;3.63;;;;;;;9.84;100.00;61855.19;5094827;28;20446;-72
2022/04/08 00:51:33;;;;;;;6.73;3.10;;;;;;;9.88;100.00;61856.94;5095307;28;20499;-72
2022/04/08 00:54:02;;;;;;;4.10;3.50;;;;;;;9.79;100.00;61842.75;5095035;28;20251;-73
2022/04/08 00:56:30;;;;;;;4.93;3.10;;;;;;;9.93;100.00;61857.19;5094838;28;20719;-73
2022/04/08 00:58:58;;;;;;;8.17;3.73;;;;;;;9.34;100.00;61799.66;5095139;28;20227;-71
2022/04/08 01:01:25;;;;;;;6.37;3.47;;;;;;;9.91;100.00;61858.13;5094644;28;20461;-72
2022/04/08 01:03:52;;;;;;;6.33;3.40;;;;;;;9.74;100.00;61839.41;5094866;28;20196;-73
2022/04/08 01:06:19;;;;;;;6.70;3.77;;;;;;;9.73;100.00;61835.78;5094638;28;20437;-72
2022/04/08 01:08:49;;;;;;;7.80;3.37;;;;;;;9.60;100.00;61824.44;5094640;28;20496;-72
2022/04/08 01:11:19;;;;;;;6.37;3.50;;;;;;;9.60;100.00;61821.88;5094297;28;20545;-74
2022/04/08 01:13:46;;;;;;;5.40;3.33;;;;;;;9.67;100.00;61835.00;5094865;28;20569;-72
2022/04/08 01:16:14;;;;;;;5.73;3.50;;;;;;;9.73;100.00;61840.88;5094842;28;20437;-72
2022/04/08 01:18:41;;;;;;;6.60;3.83;;;;;;;9.64;100.00;61831.25;5094337;28;20223;-72
2022/04/08 01:21:08;;;;;;;6.57;4.10;;;;;;;8.99;100.00;61762.78;5094507;28;20438;-72
2022/04/08 01:23:37;;;;;;;5.30;3.70;;;;;;;9.59;100.00;61823.34;5094588;28;20437;-71
2022/04/08 01:26:07;;;;;;;5.70;3.80;;;;;;;9.45;100.00;61810.91;5094552;28;20438;-72
2022/04/08 01:28:34;;;;;;;4.97;3.70;;;;;;;9.20;100.00;61782.16;5094522;28;20518;-71
2022/04/08 01:31:01;;;;;;;7.20;3.73;;;;;;;9.41;100.00;61806.63;5094015;28;20503;-71
2022/04/08 01:33:28;;;;;;;6.10;3.70;;;;;;;9.27;100.00;61790.19;5094147;28;20472;-71
2022/04/08 01:35:55;;;;;;;6.73;3.97;;;;;;;9.43;100.00;61803.69;5093667;28;20486;-72
2022/04/08 01:38:22;;;;;;;5.60;3.50;;;;;;;9.35;100.00;61803.81;5093560;28;21007;-71
2022/04/08 01:40:48;;;;;;;5.83;4.17;;;;;;;9.24;100.00;61788.97;5094515;28;20192;-71
2022/04/08 01:43:17;;;;;;;6.90;3.90;;;;;;;8.98;100.00;61761.16;5093765;28;20254;-72
2022/04/08 01:45:44;;;;;;;4.30;3.70;;;;;;;9.25;100.00;61790.59;5093686;28;20199;-71
2022/04/08 01:48:11;;;;;;;5.27;3.83;;;;;;;9.15;100.00;61779.88;5093842;28;20507;-72
2022/04/08 01:50:38;;;;;;;5.37;3.20;;;;;;;9.15;100.00;61779.88;5093767;28;20498;-71
2022/04/08 01:53:04;;;;;;;4.97;3.50;;;;;;;9.07;100.00;61768.78;5093515;28;20195;-71
2022/04/08 01:55:31;;;;;;;6.03;3.33;;;;;;;8.99;100.00;61757.16;5094010;28;20256;-71
2022/04/08 01:57:58;;;;;;;6.17;3.40;;;;;;;9.10;100.00;61774.00;5092479;28;20232;-72
2022/04/08 02:00:26;;;;;;;4.50;3.20;;;;;;;9.03;100.00;61761.97;5093503;28;20499;-71
2022/04/08 02:02:53;;;;;;;5.00;3.30;;;;;;;8.84;100.00;61746.19;5093620;28;20442;-71
2022/04/08 02:05:20;;;;;;;4.80;3.33;;;;;;;8.63;100.00;61724.28;5093357;28;21013;-71
2022/04/08 02:07:48;;;;;;;6.93;3.13;;;;;;;8.84;100.00;61746.72;5093167;28;20452;-72
2022/04/08 02:10:15;;;;;;;3.43;2.80;;;;;;;8.72;100.00;61731.34;5093297;28;20437;-72
2022/04/08 02:12:42;;;;;;;7.03;3.77;;;;;;;8.59;100.00;61720.00;5093099;28;20515;-71
2022/04/08 02:15:10;;;;;;;4.20;3.10;;;;;;;8.25;100.00;61678.59;5093271;28;20502;-72
2022/04/08 02:17:38;;;;;;;4.63;2.83;;;;;;;8.36;100.00;61695.41;5093523;28;20433;-72
2022/04/08 02:20:08;;;;;;;3.47;2.80;;;;;;;8.39;100.00;61691.53;5093147;28;20489;-73
2022/04/08 02:22:35;;;;;;;6.33;3.10;;;;;;;8.25;100.00;61679.09;5093973;28;20446;-71
2022/04/08 02:25:02;;;;;;;4.93;3.20;;;;;;;8.15;100.00;61670.41;5093152;28;20540;-71
2022/04/08 02:27:30;;;;;;;6.83;3.43;;;;;;;8.17;100.00;61672.53;5093349;28;20942;-71
2022/04/08 02:29:58;;;;;;;6.13;3.80;;;;;;;8.25;100.00;61683.66;5092978;28;20438;-71
2022/04/08 02:32:25;;;;;;;8.07;4.27;;;;;;;8.19;100.00;61679.75;5092741;28;20509;-71
2022/04/08 02:34:53;;;;;;;4.20;3.37;;;;;;;8.21;100.00;61679.34;5092760;28;21009;-73
2022/04/08 02:37:38;;;;;;;6.33;3.30;;;;;;;8.36;100.00;61695.94;5092950;28;20434;-72
2022/04/08 02:40:07;;;;;;;7.43;3.43;;;;;;;8.35;100.00;61689.28;5092772;28;21002;-73
2022/04/08 02:42:33;;;;;;;7.57;3.60;;;;;;;8.22;100.00;61680.41;5092690;27;21012;-70
2022/04/08 02:45:01;;;;;;;7.90;3.70;;;;;;;8.13;100.00;61675.88;5092770;28;20836;-72
2022/04/08 02:47:27;;;;;;;4.30;3.17;;;;;;;8.26;100.00;61682.72;5092067;28;20896;-71
2022/04/08 02:49:56;;;;;;;3.90;2.97;;;;;;;8.26;100.00;61684.72;5092717;28;20437;-71
2022/04/08 02:52:22;;;;;;;11.97;3.40;;;;;;;8.15;100.00;61672.94;5092804;28;20437;-71
2022/04/08 02:54:49;;;;;;;6.77;3.67;;;;;;;8.14;100.00;61671.88;5092322;28;20472;-71
2022/04/08 02:57:16;;;;;;;6.03;3.90;;;;;;;8.16;100.00;61672.00;5092534;28;20449;-72
2022/04/08 02:59:43;;;;;;;9.57;3.50;;;;;;;8.23;100.00;61676.41;5092389;28;20507;-71
2022/04/08 03:02:10;;;;;;;5.03;3.43;;;;;;;8.24;100.00;61682.56;5092447;28;20438;-72
2022/04/08 03:04:38;;;;;;;4.67;3.57;;;;;;;8.22;100.00;61680.97;5092462;28;20438;-72
2022/04/08 03:07:06;;;;;;;5.57;3.90;;;;;;;8.30;100.00;61683.91;5092084;28;20491;-72
2022/04/08 03:09:33;;;;;;;6.67;4.00;;;;;;;8.01;100.00;61655.97;5092355;28;20446;-70
2022/04/08 03:12:00;;;;;;;5.10;3.40;;;;;;;7.98;100.00;61654.78;5092691;28;20453;-71
2022/04/08 03:14:26;;;;;;;4.67;3.73;;;;;;;8.06;100.00;61663.84;5092103;28;20441;-71
2022/04/08 03:16:53;;;;;;;6.43;4.27;;;;;;;8.18;100.00;61676.16;5092780;28;20872;-72
2022/04/08 03:19:20;;;;;;;9.00;4.33;;;;;;;7.67;100.00;61620.19;5090972;28;20469;-71
2022/04/08 03:21:47;;;;;;;5.87;4.00;;;;;;;8.14;100.00;61674.41;5092259;28;20559;-71
2022/04/08 03:24:16;;;;;;;8.20;4.20;;;;;;;8.09;100.00;61666.53;5092180;28;20446;-72
2022/04/08 03:26:42;;;;;;;7.53;4.20;;;;;;;8.03;100.00;61662.66;5092029;28;20442;-72
2022/04/08 03:29:09;;;;;;;9.73;3.90;;;;;;;8.06;100.00;61663.31;5091960;28;20433;-71
2022/04/08 03:31:36;;;;;;;6.87;4.07;;;;;;;7.25;100.00;61577.88;5091954;28;20570;-71
2022/04/08 03:34:03;;;;;;;6.53;3.90;;;;;;;8.03;100.00;61657.59;5091962;28;21017;-74
2022/04/08 03:36:30;;;;;;;7.13;4.13;;;;;;;8.01;100.00;61658.00;5091874;28;20537;-72
2022/04/08 03:38:57;;;;;;;7.47;4.20;;;;;;;7.94;100.00;61645.44;5092229;28;20469;-71
2022/04/08 03:41:25;;;;;;;10.23;4.40;;;;;;;7.99;100.00;61656.38;5091615;28;21025;-72
2022/04/08 03:43:52;;;;;;;7.17;4.00;;;;;;;7.87;100.00;61643.56;5092069;28;20434;-73
2022/04/08 03:46:18;;;;;;;8.47;3.83;;;;;;;7.95;100.00;61654.13;5091952;28;20437;-73
2022/04/08 03:48:45;;;;;;;5.97;4.10;;;;;;;7.81;100.00;61636.63;5092395;28;20441;-73
2022/04/08 03:51:12;;;;;;;6.53;3.97;;;;;;;7.68;100.00;61626.34;5092026;28;20437;-72
2022/04/08 03:53:39;;;;;;;10.37;4.90;;;;;;;7.67;100.00;61619.66;5091812;28;20430;-72
2022/04/08 03:56:06;;;;;;;5.50;3.87;;;;;;;7.62;100.00;61621.94;5091799;28;20484;-72
2022/04/08 03:58:35;;;;;;;10.73;4.33;;;;;;;7.66;100.00;61621.66;5092170;28;20438;-73
2022/04/08 04:01:01;;;;;;;6.97;3.83;;;;;;;7.77;100.00;61632.34;5095742;28;20502;-72
2022/04/08 04:03:28;;;;;;;9.33;4.37;;;;;;;7.73;100.00;61626.06;5095849;28;20510;-72
2022/04/08 04:05:56;;;;;;;10.17;4.40;;;;;;;7.69;100.00;61619.78;5095918;28;20434;-72
2022/04/08 04:08:23;;;;;;;8.33;4.17;;;;;;;7.63;100.00;61620.44;5095415;28;20449;-72
2022/04/08 04:10:50;;;;;;;6.87;4.23;;;;;;;7.72;100.00;61621.94;5095625;28;20526;-71
2022/04/08 04:13:17;;;;;;;6.57;4.93;;;;;;;7.66;100.00;61621.66;5095533;28;20520;-72
2022/04/08 04:15:46;;;;;;;9.57;4.07;;;;;;;7.55;100.00;61606.84;5095819;28;20437;-71
2022/04/08 04:18:14;;;;;;;8.00;4.23;;;;;;;7.68;100.00;61623.81;5099163;28;20437;-72
2022/04/08 04:20:41;;;;;;;9.13;5.00;;;;;;;7.92;100.00;61643.28;5096804;28;20575;-72
2022/04/08 04:23:07;;;;;;;6.50;4.50;;;;;;;7.90;100.00;61651.28;5095479;28;20445;-72
2022/04/08 04:25:34;;;;;;;9.80;4.20;;;;;;;8.23;100.00;61681.50;5095257;28;20924;-71
2022/04/08 04:28:01;;;;;;;7.77;4.60;;;;;;;8.24;100.00;61682.56;5095604;28;20499;-72
2022/04/08 04:30:28;;;;;;;9.87;4.50;;;;;;;7.48;100.00;61601.91;5095461;28;20561;-72
2022/04/08 04:32:56;;;;;;;7.10;4.83;;;;;;;8.18;100.00;61678.69;5095732;28;20541;-71
2022/04/08 04:35:24;;;;;;;7.63;4.77;;;;;;;8.24;100.00;61683.09;5095853;28;20433;-71
2022/04/08 04:37:50;;;;;;;6.57;4.50;;;;;;;8.24;100.00;61677.47;5095930;28;20441;-72
2022/04/08 04:40:17;;;;;;;6.73;3.73;;;;;;;8.27;100.00;61683.25;5095352;28;20509;-73
2022/04/08 04:42:45;;;;;;;10.03;4.67;;;;;;;8.25;100.00;61678.59;5094991;28;20449;-71
2022/04/08 04:45:13;;;;;;;8.63;4.13;;;;;;;8.61;100.00;61719.59;5094743;28;20437;-71
2022/04/08 04:47:40;;;;;;;5.83;3.47;;;;;;;8.68;100.00;61732.16;5095221;28;20521;-71
2022/04/08 04:50:09;;;;;;;10.00;4.50;;;;;;;8.76;100.00;61735.63;5094909;28;20508;-71
2022/04/08 04:52:36;;;;;;;8.03;4.50;;;;;;;8.82;100.00;61739.50;5095254;28;20441;-72
2022/04/08 04:55:04;;;;;;;4.50;3.67;;;;;;;8.99;100.00;61760.22;5094967;28;20800;-71
2022/04/08 04:57:30;;;;;;;6.37;3.80;;;;;;;9.04;100.00;61765.56;5094700;28;20441;-72
2022/04/08 04:59:58;;;;;;;7.20;3.63;;;;;;;9.21;100.00;61783.22;5094694;28;20472;-72
2022/04/08 05:02:25;;;;;;;9.07;4.70;;;;;;;8.65;100.00;61728.94;5094549;28;20200;-71
2022/04/08 05:04:52;;;;;;;10.70;5.97;;;;;;;9.50;100.00;61816.78;5093560;28;20438;-73
2022/04/08 05:07:20;;;;;;;12.73;5.83;;;;;;;9.68;100.00;61835.53;5095005;28;20507;-71
2022/04/08 05:09:48;;;;;;;7.30;4.20;;;;;;;9.77;100.00;61840.06;5094757;28;20441;-71
2022/04/08 05:12:15;;;;;;;5.57;3.43;;;;;;;9.95;100.00;61864.97;5093804;28;20511;-73
2022/04/08 05:14:42;;;;;;;6.57;3.50;;;;;;;9.57;100.00;61826.28;5094380;28;20747;-73
2022/04/08 05:17:11;;;;;;;5.87;3.20;;;;;;;10.25;100.00;61896.56;5094426;28;20498;-72
2022/04/08 05:19:37;;;;;;;5.43;2.90;;;;;;;10.36;100.00;61905.81;5095078;28;20619;-72
2022/04/08 05:22:05;;;;;;;6.40;3.30;;;;;;;10.44;100.00;61914.38;5094456;28;20199;-72
2022/04/08 05:24:33;;;;;;;8.43;3.53;;;;;;;10.58;100.00;61928.84;5094340;28;20241;-72
2022/04/08 05:27:00;;;;;;;8.13;3.10;;;;;;;10.53;100.00;61926.56;5094335;28;20195;-71
2022/04/08 05:29:27;;;;;;;6.67;3.20;;;;;;;10.58;100.00;61928.84;5094128;28;20199;-71
2022/04/08 05:31:54;;;;;;;5.53;3.13;;;;;;;10.87;100.00;61962.97;5093867;28;20814;-72
2022/04/08 05:34:21;;;;;;;5.77;2.87;;;;;;;11.05;100.00;61976.63;5095081;28;20196;-72
2022/04/08 05:36:48;;;;;;;4.80;3.00;;;;;;;11.17;100.00;61994.59;5093830;28;20203;-72
2022/04/08 05:39:15;;;;;;;5.80;4.00;;;;;;;11.28;100.00;62008.94;5095019;28;20231;-72
2022/04/08 05:41:43;;;;;;;10.50;4.07;;;;;;;11.41;100.00;62019.81;5095929;28;20249;-71
2022/04/08 05:44:10;;;;;;;3.77;2.93;;;;;;;11.64;100.00;62044.47;5093807;28;20249;-71
2022/04/08 05:46:37;;;;;;;9.33;2.70;;;;;;;11.87;100.00;62064.56;5094541;28;20253;-73
2022/04/08 05:49:04;;;;;;;3.83;2.47;;;;;;;11.86;100.00;62068.63;5094158;28;20195;-71
2022/04/08 05:51:31;;;;;;;4.17;2.57;;;;;;;12.48;100.00;62129.50;5093768;28;20195;-71
2022/04/08 05:53:58;;;;;;;4.47;2.37;;;;;;;12.65;100.00;62144.66;5093727;28;20245;-71
2022/04/08 05:56:25;;;;;;;9.93;3.10;;;;;;;12.93;100.00;62179.28;5093657;28;20211;-71
2022/04/08 05:58:53;;;;;;;8.00;3.30;;;;;;;13.09;100.00;62199.03;5093893;28;20260;-71
2022/04/08 06:01:20;;;;;;;6.90;3.00;;;;;;;13.27;100.00;62218.38;5093121;28;20722;-71
2022/04/08 06:03:47;;;;;;;5.97;2.83;;;;;;;13.67;100.00;62258.78;5093564;28;20518;-71
2022/04/08 06:06:14;;;;;;;5.73;2.53;;;;;;;13.73;100.00;62262.66;5093395;28;20195;-71
2022/04/08 06:08:40;;;;;;;3.17;2.33;;;;;;;14.05;100.00;62297.06;5093368;28;20724;-71
2022/04/08 06:11:07;;;;;;;3.67;2.43;;;;;;;14.15;100.00;62312.94;5092817;28;20260;-73
2022/04/08 06:13:35;;;;;;;5.33;2.60;;;;;;;14.49;100.00;62346.41;5093148;28;20200;-72
2022/04/08 06:16:03;;;;;;;5.17;2.77;;;;;;;14.44;100.00;62337.94;5093327;28;20223;-71
2022/04/08 06:18:30;;;;;;;4.80;2.50;;;;;;;14.55;100.00;62354.91;5093425;28;20192;-72
2022/04/08 06:20:57;;;;;;;5.00;2.47;;;;;;;14.59;100.00;62354.06;5092620;28;20296;-72
2022/04/08 06:23:24;;;;;;;5.67;1.87;;;;;;;14.29;100.00;62328.00;5092171;28;20195;-71
2022/04/08 06:25:52;;;;;;;4.93;2.37;;;;;;;14.38;100.00;62337.16;5093119;28;20249;-71
2022/04/08 06:28:20;;;;;;;5.23;2.03;;;;;;;14.37;100.00;62336.59;5093539;28;20191;-71
2022/04/08 06:30:48;;;;;;;6.50;2.60;;;;;;;14.86;100.00;62388.22;5092569;28;20251;-72
2022/04/08 06:33:17;;;;;;;5.87;2.27;;;;;;;14.65;100.00;62363.09;5092943;28;20235;-72
2022/04/08 06:35:43;;;;;;;6.03;2.10;;;;;;;14.45;100.00;62346.72;5092872;28;20645;-71
2022/04/08 06:38:10;;;;;;;3.53;1.80;;;;;;;14.53;100.00;62350.19;5092927;28;20200;-72
2022/04/08 06:40:38;;;;;;;4.43;2.30;;;;;;;14.81;100.00;62382.88;5092678;28;20677;-71
2022/04/08 06:43:05;;;;;;;5.03;1.93;;;;;;;15.10;100.00;62411.50;5092413;28;20291;-72
2022/04/08 06:45:33;;;;;;;5.47;2.10;;;;;;;14.70;100.00;62365.91;5093580;28;20616;-72
2022/04/08 06:48:00;;;;;;;5.17;2.17;;;;;;;14.65;100.00;62371.31;5093620;28;20627;-72
2022/04/08 06:50:29;;;;;;;3.63;1.93;;;;;;;14.93;100.00;62393.72;5092786;28;20264;-71
2022/04/08 06:52:59;;;;;;;7.87;2.20;;;;;;;15.15;100.00;62419.44;5092491;28;20249;-72
2022/04/08 06:55:26;;;;;;;3.70;2.00;;;;;;;15.29;100.00;62433.97;5092849;28;20656;-72
2022/04/08 06:57:53;;;;;;;5.70;2.30;;;;;;;15.53;100.00;62452.13;5092379;28;20679;-72
2022/04/08 07:00:22;;;;;;;5.13;2.30;;;;;;;15.58;100.00;62460.59;5092549;28;20276;-72
2022/04/08 07:02:48;;;;;;;7.43;2.50;;;;;;;15.76;100.00;62485.13;5092272;28;20191;-73
2022/04/08 07:05:15;;;;;;;5.37;2.37;;;;;;;15.85;100.00;62492.25;5091963;28;20699;-73
2022/04/08 07:07:45;;;;;;;6.77;2.10;;;;;;;16.02;100.00;62513.13;5092184;28;20650;-72
2022/04/08 07:10:13;;;;;;;5.70;2.20;;;;;;;16.00;100.00;62515.56;5093041;28;20202;-71
2022/04/08 07:12:39;;;;;;;4.27;2.23;;;;;;;16.24;100.00;62538.31;5092342;28;20215;-71
2022/04/08 07:15:07;;;;;;;4.30;1.77;;;;;;;15.97;100.00;62504.63;5092268;28;20260;-73
2022/04/08 07:17:37;;;;;;;5.93;2.00;;;;;;;16.17;100.00;62526.16;5092158;28;20570;-72
2022/04/08 07:20:04;;;;;;;4.37;1.93;;;;;;;16.54;100.00;62570.66;5091991;28;20288;-72
2022/04/08 07:22:32;;;;;;;5.47;2.13;;;;;;;16.57;100.00;62566.72;5091867;28;20604;-72
2022/04/08 07:25:00;;;;;;;5.70;2.10;;;;;;;16.73;100.00;62588.56;5093328;28;20595;-73
2022/04/08 07:27:27;;;;;;;5.83;2.00;;;;;;;17.07;100.00;62622.63;5092474;28;20561;-72
2022/04/08 07:29:54;;;;;;;3.43;2.17;;;;;;;17.37;100.00;62657.56;5092154;28;20236;-73
2022/04/08 07:32:21;;;;;;;4.03;2.40;;;;;;;17.79;100.00;62697.16;5091831;28;20235;-72
2022/04/08 07:34:49;;;;;;;5.17;2.50;;;;;;;18.00;100.00;62724.44;5091831;28;20239;-72
2022/04/08 07:37:16;;;;;;;5.00;3.10;;;;;;;18.16;100.00;62741.72;5091832;28;20670;-72
2022/04/08 07:39:43;;;;;;;6.87;2.10;;;;;;;18.07;100.00;62732.00;5091640;28;20199;-71
2022/04/08 07:42:12;;;;;;;7.93;3.40;;;;;;;18.17;100.00;62743.31;5091802;28;20669;-71
2022/04/08 07:44:39;;;;;;;6.17;2.20;;;;;;;18.42;100.00;62764.63;5091921;28;20278;-72
2022/04/08 07:47:07;;;;;;;9.33;2.47;;;;;;;18.46;100.00;62768.94;5091170;28;20203;-72
2022/04/08 07:49:33;;;;;;;4.93;2.20;;;;;;;18.68;100.00;62795.28;5091710;28;20195;-72
2022/04/08 07:52:00;;;;;;;6.57;2.10;;;;;;;18.59;100.00;62790.75;5091676;28;20200;-73
2022/04/08 07:54:27;;;;;;;7.20;2.60;;;;;;;18.50;100.00;62781.00;5091602;28;20678;-70
2022/04/08 07:56:53;;;;;;;8.33;2.33;;;;;;;18.60;100.00;62788.69;5092173;28;20264;-72
2022/04/08 07:59:21;;;;;;;4.83;2.17;;;;;;;18.71;100.00;62801.13;5091828;28;20192;-72
2022/04/08 08:01:48;;;;;;;9.93;2.13;;;;;;;18.95;100.00;62829.06;5091568;28;20284;-72
2022/04/08 08:04:16;;;;;;;4.27;2.03;;;;;;;18.45;100.00;62778.72;5091633;28;20212;-72
2022/04/08 08:06:43;;;;;;;4.10;2.40;;;;;;;18.66;100.00;62793.13;5091376;28;20203;-71
2022/04/08 08:09:10;;;;;;;4.33;2.00;;;;;;;18.86;100.00;62816.75;5091268;28;20674;-73
2022/04/08 08:11:36;;;;;;;4.40;2.17;;;;;;;18.92;100.00;62823.78;5091453;28;20219;-71
2022/04/08 08:14:03;;;;;;;6.30;2.07;;;;;;;19.18;100.00;62851.88;5091325;28;20199;-72
2022/04/08 08:16:32;;;;;;;3.53;2.10;;;;;;;19.47;100.00;62882.13;5091966;28;20196;-72
2022/04/08 08:18:59;;;;;;;5.00;2.30;;;;;;;19.17;100.00;62853.38;5091306;28;20204;-72
2022/04/08 08:21:25;;;;;;;5.83;2.47;;;;;;;18.89;100.00;62815.38;5092212;28;20223;-71
2022/04/08 08:23:53;;;;;;;6.43;1.93;;;;;;;19.22;100.00;62858.78;5091949;28;20626;-72
2022/04/08 08:26:19;;;;;;;5.60;2.10;;;;;;;19.20;100.00;62854.03;5091573;28;20200;-71
2022/04/08 08:28:46;;;;;;;2.23;1.87;;;;;;;19.05;100.00;62837.84;5091611;28;20195;-71
2022/04/08 08:31:15;;;;;;;7.03;2.13;;;;;;;19.09;100.00;62842.16;5091309;28;20249;-71
2022/04/08 08:33:44;;;;;;;6.90;2.20;;;;;;;19.05;100.00;62834.72;5092023;28;20282;-72
2022/04/08 08:36:12;;;;;;;7.07;1.90;;;;;;;19.48;100.00;62883.22;5091147;28;20686;-72
2022/04/08 08:38:39;;;;;;;2.93;1.83;;;;;;;19.42;100.00;62876.75;5091407;28;20715;-73
2022/04/08 08:41:08;;;;;;;3.53;2.07;;;;;;;19.83;100.00;62921.03;5091117;28;20220;-71
2022/04/08 08:43:35;;;;;;;5.70;1.90;;;;;;;19.72;100.00;62909.16;5091650;28;20199;-71
2022/04/08 08:46:06;;;;;;;2.13;1.70;;;;;;;19.49;100.00;62881.72;5092406;28;20195;-71
2022/04/08 08:48:35;;;;;;;5.17;2.33;;;;;;;19.74;100.00;62911.31;5095611;28;20250;-71
2022/04/08 08:51:05;;;;;;;3.60;2.00;;;;;;;20.06;100.00;62943.31;5094762;28;20203;-72
2022/04/08 08:53:33;;;;;;;3.63;1.80;;;;;;;20.32;100.00;62974.03;5094697;28;20658;-72
2022/04/08 08:56:00;;;;;;;3.53;1.70;;;;;;;19.68;100.00;62899.66;5096671;28;20269;-72
2022/04/08 08:58:27;;;;;;;5.57;1.90;;;;;;;20.06;100.00;62943.31;5094969;28;20204;-71
2022/04/08 09:00:53;;;;;;;2.87;1.80;;;;;;;20.42;100.00;62984.84;5094354;28;20224;-72
2022/04/08 09:03:20;;;;;;;7.97;1.97;;;;;;;20.71;100.00;63018.81;5094443;28;20196;-73
2022/04/08 09:05:52;;;;;;;3.17;2.00;;;;;;;20.93;100.00;63037.41;5094280;28;20211;-71
2022/04/08 09:08:20;;;;;;;2.17;1.70;;;;;;;20.88;100.00;63034.63;5095293;28;20254;-72
2022/04/08 09:10:49;;;;;;;3.47;1.70;;;;;;;20.81;100.00;63021.31;5096265;28;20283;-72
2022/04/08 09:13:20;;;;;;;2.23;1.57;;;;;;;20.86;100.00;63029.84;5093965;28;20723;-71
2022/04/08 09:15:57;;;;;;;3.53;1.57;;;;;;;20.39;100.00;62976.44;5094388;28;20287;-71
2022/04/08 09:18:24;;;;;;;2.43;1.70;;;;;;;20.90;100.00;63036.78;5094434;28;20252;-73
2022/04/08 09:20:51;;;;;;;3.50;1.90;;;;;;;20.54;100.00;63005.59;5093870;28;20231;-72
2022/04/08 09:23:21;;;;;;;7.40;2.10;;;;;;;21.32;100.00;63081.16;5094142;28;20196;-71
2022/04/08 09:25:50;;;;;;;2.23;1.60;;;;;;;21.44;100.00;63094.13;5094843;28;20253;-72
2022/04/08 09:28:20;;;;;;;5.17;2.07;;;;;;;21.26;100.00;63074.66;5094420;28;20253;-72
2022/04/08 09:30:53;;;;;;;1.97;1.77;;;;;;;21.45;100.00;63092.63;5094261;28;20755;-70
2022/04/08 09:33:21;;;;;;;2.57;1.67;;;;;;;21.53;100.00;63099.22;5094471;28;20687;-73
2022/04/08 09:35:49;;;;;;;2.40;1.97;;;;;;;21.64;100.00;63115.78;5094395;28;20537;-73
2022/04/08 09:38:20;;;;;;;3.03;1.80;;;;;;;21.64;100.00;63115.78;5093896;28;20199;-72
2022/04/08 09:40:48;;;;;;;5.03;1.97;;;;;;;21.47;100.00;63094.81;5094755;28;20231;-72
2022/04/08 09:43:16;;;;;;;10.70;6.40;;;;;;;21.25;100.00;63073.59;5093943;28;20199;-71
2022/04/08 09:45:44;;;;;;;6.73;3.77;;;;;;;20.96;100.00;63043.28;5093659;28;20670;-71
2022/04/08 09:48:11;;;;;;;4.80;3.10;;;;;;;21.55;100.00;63106.59;5093569;28;20200;-71
2022/04/08 09:50:40;;;;;;;7.50;2.77;;;;;;;22.15;100.00;63171.06;5093788;28;20260;-73
2022/04/08 09:53:07;;;;;;;11.13;6.87;;;;;;;22.20;100.00;63173.31;5093243;28;20211;-72
2022/04/08 09:55:36;;;;;;;15.10;4.90;;;;;;;22.89;100.00;63244.97;5093512;28;20280;-71
2022/04/08 09:58:08;;;;;;;2.70;2.00;;;;;;;22.68;100.00;63228.47;5093278;28;20721;-71
2022/04/08 10:00:36;;;;;;;3.20;1.73;;;;;;;22.23;100.00;63179.16;5093457;28;20316;-71
2022/04/08 10:03:05;;;;;;;2.67;2.07;;;;;;;22.56;100.00;63214.91;5093447;28;20215;-72
2022/04/08 10:05:31;;;;;;;2.80;1.50;;;;;;;22.27;95.87;63189.25;5093295;28;20621;-71
2022/04/08 10:08:01;;;;;;;5.10;2.40;;;;;;;22.34;100.00;63191.63;5093386;28;20256;-74
2022/04/08 10:10:32;;;;;;;4.60;2.40;;;;;;;22.52;100.00;63208.53;5093365;28;20380;-71
2022/04/08 10:13:31;;;;;;;8.17;2.57;;;;;;;23.13;100.00;63270.97;5093170;28;20656;-71
2022/04/08 10:16:06;;;;;;;7.33;3.47;;;;;;;22.60;100.00;63214.63;5092929;28;20550;-72
2022/04/08 10:18:37;;;;;;;10.20;2.63;;;;;;;23.21;100.00;63285.38;5092766;28;20206;-71
2022/04/08 10:21:04;;;;;;;3.43;1.50;;;;;;;23.36;93.72;63301.13;5092842;28;20253;-73
2022/04/08 10:23:38;;;;;;;5.23;2.37;;;;;;;23.36;93.51;63296.47;5092808;28;20203;-72
2022/04/08 10:26:07;;;;;;;6.10;2.20;;;;;;;23.06;100.00;63266.00;5092814;28;20306;-72
2022/04/08 10:28:38;;;;;;;13.37;5.63;;;;;;;22.92;100.00;63250.81;5093055;28;20195;-72
2022/04/08 10:31:18;;;;;;;4.30;2.30;;;;;;;23.17;100.00;63277.91;5093289;28;20204;-72
2022/04/08 10:33:50;;;;;;;4.20;2.30;;;;;;;23.23;100.00;63287.00;5093320;28;20564;-72
2022/04/08 10:36:17;;;;;;;5.30;2.30;;;;;;;23.62;95.24;63329.34;5092773;28;20632;-72
2022/04/08 10:38:44;;;;;;;2.77;1.67;;;;;;;23.68;88.63;63335.84;5092739;28;20200;-72
2022/04/08 10:41:11;;;;;;;6.30;2.27;;;;;;;23.86;92.70;63354.81;5092219;28;20246;-72
2022/04/08 10:43:49;;;;;;;6.27;2.47;;;;;;;23.12;90.30;63278.22;5092429;28;20200;-72
2022/04/08 10:46:31;;;;;;;4.37;2.20;;;;;;;23.64;100.00;63331.50;5092553;28;20282;-72
2022/04/08 10:48:59;;;;;;;6.97;1.70;;;;;;;23.36;91.77;63301.13;5093372;28;20218;-73
2022/04/08 10:51:31;;;;;;;4.13;2.00;;;;;;;23.76;84.58;63339.31;5093016;28;20264;-72
2022/04/08 10:54:03;;;;;;;3.97;2.10;;;;;;;23.96;85.68;63363.59;5093268;28;20195;-71
2022/04/08 10:56:34;;;;;;;5.77;2.90;;;;;;;23.65;91.88;63337.78;5092477;28;20254;-72
2022/04/08 10:59:03;;;;;;;8.87;3.57;;;;;;;24.25;83.82;63392.47;5093155;28;20252;-73
2022/04/08 11:01:34;;;;;;;2.70;1.80;;;;;;;24.17;80.45;63389.00;5092216;28;20235;-73
2022/04/08 11:04:03;;;;;;;2.97;1.53;;;;;;;23.86;78.96;63352.75;5092789;28;20193;-71
2022/04/08 11:06:32;;;;;;;4.43;1.70;;;;;;;24.11;82.77;63379.88;5092488;28;20279;-71
2022/04/08 11:09:05;;;;;;;5.87;1.63;;;;;;;24.48;76.21;63421.56;5091751;28;20212;-71
2022/04/08 11:11:33;;;;;;;2.70;1.60;;;;;;;24.75;77.09;63445.69;5093090;28;20251;-71
2022/04/08 11:14:03;;;;;;;3.63;1.40;;;;;;;25.38;70.29;63519.31;5091955;28;20265;-72
2022/04/08 11:16:32;;;;;;;3.23;1.77;;;;;;;25.56;74.54;63533.66;5092268;28;20247;-71
2022/04/08 11:19:00;;;;;;;2.90;1.83;;;;;;;25.47;71.71;63529.09;5092202;28;20207;-71
2022/04/08 11:21:29;;;;;;;4.83;2.03;;;;;;;25.40;69.38;63516.28;5092207;28;20374;-72
2022/04/08 11:24:00;;;;;;;3.43;1.87;;;;;;;24.91;69.80;63468.28;5092329;28;20628;-71
2022/04/08 11:26:29;;;;;;;4.60;1.80;;;;;;;25.04;67.60;63482.91;5091735;28;20673;-73
2022/04/08 11:28:55;;;;;;;2.10;1.67;;;;;;;25.23;68.83;63500.41;5092687;28;20231;-71
2022/04/08 11:31:24;;;;;;;5.00;1.57;;;;;;;25.31;64.02;63511.72;5091371;28;20204;-71
2022/04/08 11:33:51;;;;;;;1.70;1.50;;;;;;;25.20;64.85;63499.75;5092147;28;20224;-73